Riverside, CA (92514)

12:38 PM PDT on July 29, 2016 (GMT -0700)
WR6G Magnolia Center | | Change Station

Elev 820 ft 33.95 °N, 117.41 °W | Updated 4 minutes ago

Clear
Clear
102.3 °F
Feels Like 107 °F
N
0.0
Wind Variable Wind from NE
Gusts 10.0 mph

Today
High -- | Low -- °F
--% Chance of Precip.
Yesterday
High -- | Low -- °F
Precip. -- in
Pressure 29.78 in
Visibility 10.0 miles
Clouds Clear
Heat Index 107 °F
Dew Point 66 °F
Humidity 31%
Rainfall 0.00 in
Snow Depth Not available.
5:59 AM 7:52 PM
Waning Crescent, 19% visible
METAR KRAL 291853Z VRB05KT 10SM CLR 36/13 A2983 RMK AO2 SLP084 T03560133
Pressure 29.78 in
Visibility 10.0 miles
Clouds Clear
Heat Index 107 °F
Dew Point 66 °F
Humidity 31%
Rainfall 0.00 in
Snow Depth Not available.
5:59 AM 7:52 PM
Waning Crescent, 19% visible
METAR KRAL 291853Z VRB05KT 10SM CLR 36/13 A2983 RMK AO2 SLP084 T03560133

10-Day Weather Forecast

Almanac

Astronomy

Jul. 29, 2016 Rise Set
Actual Time
Civil Twilight
Nautical Twilight
Astronomical Twilight
Moon
Length of Visible Light
Length of Day
Tomorrow will be .
, % of the Moon is Illuminated

Today's Extremes

State Highs State Lows

Community

WunderPhotos

Upload Photos

1,928,399 photos uploaded!

WunderBlog® & News

Nearby

Air Quality

  Air Quality AQ Index Pollutant
Not available.

Snow Depth

Station Depth Elevation

Earthquake Activity

City Distance Mag. Time & Date
Minimum magnitude displayed is 2.5.

Coastal Water Temperatures

Place Temperature

Stations

Nearby Weather Stations

Station Location Temp. Windchill Dew Point Humidity Wind Precip. Elev Updated Type
                   

Watches & Warnings

There are currently no watches in effect.